Time;durP1;ratioP1;P1;durP2;ratioP2;P2;SDS_P1;SDS_P2;PMS_P1;PMS_P2;Temp;Humidity;BMP_temperature;BMP_pressure;BME280_temperature;BME280_humidity;BME280_pressure;Samples;Min_cycle;Max_cycle;Signal;HPM_P1;HPM_P2
2022/04/23 00:00:17;;;;;;;49.47;30.13;;;;;;;0.51;77.56;98212.69;2166928;82;20960;-85
2022/04/23 00:03:18;;;;;;;46.33;28.37;;;;;;;0.52;77.50;98216.14;2166231;82;21333;-84
2022/04/23 00:06:18;;;;;;;53.00;32.03;;;;;;;0.56;77.89;98215.04;2166771;82;21000;-84
2022/04/23 00:09:18;;;;;;;57.07;32.83;;;;;;;0.56;77.75;98214.16;2167220;82;20941;-85
2022/04/23 00:12:19;;;;;;;76.43;36.67;;;;;;;0.57;78.04;98218.08;2166185;81;21375;-83
2022/04/23 00:15:21;;;;;;;71.00;34.53;;;;;;;0.54;77.75;98213.22;2166118;82;20980;-84
2022/04/23 00:18:20;;;;;;;55.73;31.40;;;;;;;0.47;77.48;98208.66;2166234;82;21348;-84
2022/04/23 00:21:20;;;;;;;51.13;29.77;;;;;;;0.44;77.60;98219.67;2166925;82;20921;-85
2022/04/23 00:24:20;;;;;;;62.83;30.53;;;;;;;0.43;77.67;98215.35;2167103;82;20937;-86
2022/04/23 00:27:21;;;;;;;50.47;29.67;;;;;;;0.45;77.60;98212.84;2167278;82;20921;-86
2022/04/23 00:30:21;;;;;;;53.80;30.83;;;;;;;0.48;77.69;98213.85;2167038;82;20969;-84
2022/04/23 00:33:22;;;;;;;56.87;32.07;;;;;;;0.50;77.87;98215.20;2166580;82;20908;-84
2022/04/23 00:36:23;;;;;;;65.57;38.83;;;;;;;0.52;78.12;98215.73;2166523;82;20953;-83
2022/04/23 00:39:22;;;;;;;56.90;29.57;;;;;;;0.52;78.02;98214.85;2165853;82;20976;-83
2022/04/23 00:42:23;;;;;;;47.93;26.53;;;;;;;0.46;77.65;98209.47;2167236;82;20961;-84
2022/04/23 00:45:23;;;;;;;48.30;25.87;;;;;;;0.40;77.63;98215.23;2167025;82;20985;-85
2022/04/23 00:48:26;;;;;;;43.60;25.97;;;;;;;0.36;77.67;98210.78;2167453;82;20977;-84
2022/04/23 00:51:24;;;;;;;47.03;26.53;;;;;;;0.29;77.43;98203.23;2166642;82;20974;-85
2022/04/23 00:54:24;;;;;;;43.57;26.57;;;;;;;0.28;77.70;98196.75;2166853;82;21286;-85
2022/04/23 00:57:25;;;;;;;43.67;26.00;;;;;;;0.27;77.72;98199.72;2166724;82;20965;-84
2022/04/23 01:00:25;;;;;;;60.87;25.67;;;;;;;0.25;77.79;98194.93;2166026;82;21012;-84
2022/04/23 01:03:25;;;;;;;39.03;24.80;;;;;;;0.25;77.99;98187.23;2166783;82;20898;-85
2022/04/23 01:06:26;;;;;;;77.93;26.87;;;;;;;0.27;78.16;98194.59;2166139;82;20922;-86
2022/04/23 01:09:27;;;;;;;43.07;26.67;;;;;;;0.32;78.04;98185.80;2165818;82;21310;-86
2022/04/23 01:12:28;;;;;;;46.63;26.50;;;;;;;0.28;77.39;98179.66;2172500;82;21016;-85
2022/04/23 01:15:27;;;;;;;42.17;25.20;;;;;;;0.25;77.68;98176.09;2175450;82;20980;-85
2022/04/23 01:18:28;;;;;;;48.97;26.03;;;;;;;0.20;77.59;98177.59;2175804;82;20932;-85
2022/04/23 01:21:28;;;;;;;35.90;24.23;;;;;;;0.19;77.88;98173.27;2175375;82;21352;-85
2022/04/23 01:24:30;;;;;;;47.97;26.77;;;;;;;0.16;77.80;98169.29;2176316;82;20893;-87
2022/04/23 01:27:29;;;;;;;38.80;24.57;;;;;;;0.13;77.70;98164.91;2176440;82;20936;-87
2022/04/23 01:30:29;;;;;;;87.67;35.27;;;;;;;0.13;77.50;98162.75;2176192;82;20973;-86
2022/04/23 01:33:30;;;;;;;63.27;30.17;;;;;;;0.17;77.90;98163.34;2175973;82;20948;-86
2022/04/23 01:36:30;;;;;;;58.03;29.97;;;;;;;0.27;78.23;98171.48;2175614;82;21312;-87
2022/04/23 01:39:30;;;;;;;39.93;24.27;;;;;;;0.21;77.25;98171.64;2175290;82;21060;-86
2022/04/23 01:42:31;;;;;;;82.53;28.93;;;;;;;0.21;77.25;98171.64;2176212;82;20917;-86
2022/04/23 01:45:31;;;;;;;49.43;27.63;;;;;;;0.13;77.35;98167.88;2175945;82;21382;-87
2022/04/23 01:48:31;;;;;;;61.37;33.30;;;;;;;0.09;77.70;98170.73;2176090;82;20972;-86
2022/04/23 01:51:32;;;;;;;67.70;34.57;;;;;;;0.09;77.71;98178.42;2176453;82;20913;-87
2022/04/23 01:54:32;;;;;;;60.60;32.53;;;;;;;0.07;77.82;98176.20;2176387;82;20957;-85
2022/04/23 01:57:33;;;;;;;60.57;32.80;;;;;;;0.08;78.14;98172.82;2176366;82;20917;-86
2022/04/23 02:00:36;;;;;;;62.97;30.97;;;;;;;0.10;77.98;98170.32;2176421;82;21339;-86
2022/04/23 02:03:36;;;;;;;64.53;31.93;;;;;;;0.12;77.89;98171.27;2175523;82;20983;-85
2022/04/23 02:06:37;;;;;;;55.40;29.70;;;;;;;0.15;77.98;98171.39;2175980;82;20916;-87
2022/04/23 02:09:37;;;;;;;52.17;28.73;;;;;;;0.19;78.17;98165.57;2176419;82;20940;-87
2022/04/23 02:12:40;;;;;;;53.80;29.50;;;;;;;0.22;77.86;98170.83;2176618;82;20948;-87
2022/04/23 02:15:40;;;;;;;49.47;26.87;;;;;;;0.23;77.99;98170.02;2175829;82;20967;-87
2022/04/23 02:18:41;;;;;;;42.20;27.73;;;;;;;0.26;78.10;98165.01;2175463;82;20987;-86
2022/04/23 02:21:41;;;;;;;51.47;26.50;;;;;;;0.28;78.09;98169.80;2175400;82;21387;-87
2022/04/23 02:24:42;;;;;;;51.20;26.70;;;;;;;0.28;77.91;98173.65;2175592;82;20964;-86
2022/04/23 02:27:42;;;;;;;64.20;39.97;;;;;;;0.27;77.76;98177.03;2175632;82;20984;-86
2022/04/23 02:30:42;;;;;;;45.20;26.60;;;;;;;0.22;77.35;98178.53;2176122;82;20924;-86
2022/04/23 02:33:44;;;;;;;53.33;27.53;;;;;;;0.15;77.47;98179.09;2175880;82;20941;-86
2022/04/23 02:36:43;;;;;;;44.50;25.63;;;;;;;0.13;77.76;98177.73;2175553;82;20974;-85
2022/04/23 02:39:44;;;;;;;39.70;24.53;;;;;;;0.11;77.78;98178.08;2175950;82;20948;-85
2022/04/23 02:42:44;;;;;;;38.23;24.73;;;;;;;0.09;77.82;98183.56;2176293;82;20921;-86
2022/04/23 02:45:45;;;;;;;35.53;23.83;;;;;;;0.06;77.97;98180.86;2175634;82;21036;-86
2022/04/23 02:48:45;;;;;;;39.43;24.00;;;;;;;0.07;77.52;98188.16;2176500;82;20968;-85
2022/04/23 02:51:48;;;;;;;38.23;23.93;;;;;;;0.03;77.47;98191.41;2176306;82;20973;-86
2022/04/23 02:54:50;;;;;;;39.53;23.40;;;;;;;-0.02;77.60;98189.48;2176322;82;20933;-85
2022/04/23 02:57:49;;;;;;;35.00;23.50;;;;;;;-0.03;77.94;98183.88;2176379;82;20948;-84
2022/04/23 03:00:49;;;;;;;36.83;21.97;;;;;;;-0.02;77.58;98183.48;2176326;82;21316;-85
2022/04/23 03:03:54;;;;;;;35.70;22.50;;;;;;;-0.05;77.36;98185.51;2176766;82;21000;-85
2022/04/23 03:06:50;;;;;;;35.53;23.03;;;;;;;-0.09;77.35;98177.61;2177214;82;20916;-84
2022/04/23 03:09:51;;;;;;;52.00;33.27;;;;;;;-0.08;77.07;98178.97;2176464;82;20904;-85
2022/04/23 03:12:52;;;;;;;39.50;25.07;;;;;;;-0.12;77.43;98179.65;2176353;82;20960;-84
2022/04/23 03:15:52;;;;;;;34.83;23.53;;;;;;;-0.09;77.41;98186.19;2176117;82;20965;-84
2022/04/23 03:18:52;;;;;;;36.00;22.90;;;;;;;-0.02;77.64;98179.63;2176284;82;20968;-85
2022/04/23 03:21:53;;;;;;;32.97;21.90;;;;;;;0.09;77.91;98180.11;2176687;82;21810;-84
2022/04/23 03:24:55;;;;;;;33.70;22.27;;;;;;;0.13;77.57;98186.72;2176813;82;20968;-86
2022/04/23 03:27:56;;;;;;;36.10;22.70;;;;;;;0.15;77.30;98186.78;2176657;82;20972;-85
2022/04/23 03:30:56;;;;;;;38.57;23.77;;;;;;;0.19;77.50;98186.10;2176537;82;21359;-86
2022/04/23 03:33:56;;;;;;;49.53;28.40;;;;;;;0.27;77.91;98195.00;2176256;82;20968;-85
2022/04/23 03:36:57;;;;;;;56.27;31.93;;;;;;;0.33;78.39;98193.97;2175618;82;21333;-84
2022/04/23 03:39:57;;;;;;;54.73;30.93;;;;;;;0.33;78.59;98192.68;2175660;82;20940;-83
2022/04/23 03:42:58;;;;;;;48.23;29.30;;;;;;;0.30;78.69;98192.55;2175266;82;20972;-86
2022/04/23 03:45:58;;;;;;;37.63;24.03;;;;;;;0.27;78.46;98195.00;2175736;82;21328;-84
2022/04/23 03:48:58;;;;;;;45.40;26.63;;;;;;;0.25;77.82;98200.47;2176119;82;20920;-85
2022/04/23 03:51:59;;;;;;;41.10;25.87;;;;;;;0.20;77.91;98196.84;2176682;82;20956;-85
2022/04/23 03:55:00;;;;;;;45.13;26.57;;;;;;;0.22;78.19;98197.38;2176377;82;21347;-85
2022/04/23 03:58:00;;;;;;;219.33;36.20;;;;;;;0.22;77.23;98197.78;2175215;82;20932;-83
2022/04/23 04:01:00;;;;;;;47.00;28.47;;;;;;;0.27;77.71;98197.16;2174838;82;21008;-83
2022/04/23 04:04:01;;;;;;;43.80;27.17;;;;;;;0.28;77.48;98195.06;2174674;82;20893;-83
2022/04/23 04:07:01;;;;;;;41.30;27.33;;;;;;;0.30;77.32;98200.26;2174753;82;20940;-84
2022/04/23 04:10:02;;;;;;;50.40;30.03;;;;;;;0.40;77.36;98202.80;2174978;82;20929;-83
2022/04/23 04:13:02;;;;;;;59.70;34.60;;;;;;;0.56;77.78;98209.91;2174645;82;20973;-86
2022/04/23 04:16:03;;;;;;;54.20;32.10;;;;;;;0.73;77.64;98199.02;2175698;82;21035;-86
2022/04/23 04:19:05;;;;;;;64.60;36.37;;;;;;;0.91;77.59;98204.04;2175862;82;20948;-85
2022/04/23 04:22:09;;;;;;;73.67;40.60;;;;;;;1.04;77.75;98198.97;2175872;82;20924;-85
2022/04/23 04:25:06;;;;;;;75.03;41.17;;;;;;;1.16;78.01;98205.45;2175970;82;20940;-85
2022/04/23 04:28:07;;;;;;;72.67;40.70;;;;;;;1.34;78.12;98206.97;2176000;82;21289;-86
2022/04/23 04:34:28;;;;;;;67.60;38.17;;;;;;;1.72;77.69;98202.82;2174426;82;20916;-81
2022/04/23 04:37:27;;;;;;;62.90;38.23;;;;;;;1.94;77.85;98201.92;2174863;82;20916;-80
2022/04/23 04:40:26;;;;;;;53.03;34.53;;;;;;;2.05;77.75;98195.86;2174354;82;20944;-81
2022/04/23 04:43:27;;;;;;;62.57;34.90;;;;;;;2.16;77.98;98190.66;2174582;82;20937;-83
2022/04/23 04:46:27;;;;;;;53.20;35.57;;;;;;;2.33;78.22;98188.66;2174325;82;20959;-84
2022/04/23 04:49:28;;;;;;;67.10;38.77;;;;;;;2.52;78.15;98197.45;2174268;82;20992;-84
2022/04/23 04:52:28;;;;;;;56.27;38.60;;;;;;;2.64;78.04;98188.00;2173850;82;20967;-85
2022/04/23 04:55:28;;;;;;;70.20;38.70;;;;;;;2.83;78.08;98192.91;2174072;82;20972;-84
2022/04/23 04:58:29;;;;;;;56.03;34.90;;;;;;;3.06;78.05;98194.50;2174351;82;20992;-85
2022/04/23 05:01:29;;;;;;;47.27;31.50;;;;;;;3.25;77.53;98195.06;2174614;82;20885;-85
2022/04/23 05:04:30;;;;;;;48.33;29.70;;;;;;;3.40;77.53;98186.48;2175249;82;20977;-85
2022/04/23 05:07:30;;;;;;;42.63;28.73;;;;;;;3.56;77.11;98185.26;2175595;82;20976;-85
2022/04/23 05:10:30;;;;;;;34.10;25.03;;;;;;;3.61;76.91;98187.14;2175274;82;21396;-84
2022/04/23 05:13:31;;;;;;;34.80;23.60;;;;;;;3.78;76.90;98184.61;2174629;82;21009;-86
2022/04/23 05:16:31;;;;;;;30.60;23.27;;;;;;;4.00;76.81;98182.62;2174838;82;20952;-85
2022/04/23 05:19:32;;;;;;;34.50;23.70;;;;;;;4.20;76.46;98186.61;2174456;82;20960;-85
2022/04/23 05:22:32;;;;;;;31.93;23.47;;;;;;;4.36;76.39;98186.62;2175712;82;20969;-87
2022/04/23 05:25:32;;;;;;;35.30;23.90;;;;;;;4.57;76.34;98175.94;2175623;82;21286;-85
2022/04/23 05:28:34;;;;;;;35.87;27.00;;;;;;;4.84;75.96;98183.07;2175753;82;20917;-86
2022/04/23 05:31:33;;;;;;;34.93;25.20;;;;;;;5.04;75.63;98183.53;2175089;82;20970;-86
2022/04/23 05:34:35;;;;;;;33.90;23.80;;;;;;;5.28;75.51;98181.53;2174912;82;20972;-86
2022/04/23 05:37:34;;;;;;;31.00;23.53;;;;;;;5.54;74.80;98190.27;2174991;82;20968;-82
2022/04/23 05:40:34;;;;;;;35.10;23.80;;;;;;;5.63;74.21;98191.34;2175158;82;20912;-86
2022/04/23 05:43:38;;;;;;;33.63;24.20;;;;;;;5.81;74.16;98184.78;2175219;82;20905;-86
2022/04/23 05:46:38;;;;;;;34.60;23.57;;;;;;;5.99;73.61;98179.58;2175021;82;21003;-87
2022/04/23 05:49:38;;;;;;;30.90;23.10;;;;;;;6.23;73.59;98181.78;2175428;82;20924;-87
2022/04/23 05:52:39;;;;;;;33.37;24.00;;;;;;;6.46;72.97;98178.73;2175275;82;20984;-87
2022/04/23 05:55:39;;;;;;;28.43;21.83;;;;;;;6.69;72.85;98174.80;2175088;82;20940;-86
2022/04/23 05:58:40;;;;;;;31.33;22.87;;;;;;;6.94;72.06;98175.67;2175111;82;20917;-85
2022/04/23 06:01:40;;;;;;;33.13;24.87;;;;;;;7.11;71.28;98173.33;2174985;82;20965;-86
2022/04/23 06:04:41;;;;;;;33.87;25.53;;;;;;;7.29;70.96;98172.72;2174553;82;20941;-86
2022/04/23 06:07:41;;;;;;;37.27;27.87;;;;;;;7.54;70.20;98174.80;2174390;82;20972;-85
2022/04/23 06:10:41;;;;;;;33.20;25.20;;;;;;;7.74;69.37;98171.14;2175327;82;21273;-86
2022/04/23 06:13:42;;;;;;;32.00;24.83;;;;;;;7.91;69.20;98173.98;2174842;82;20929;-84
2022/04/23 06:16:43;;;;;;;33.60;21.87;;;;;;;8.12;68.55;98177.25;2174720;82;21060;-83
2022/04/23 06:19:43;;;;;;;28.17;21.57;;;;;;;8.30;67.85;98169.64;2174882;82;21000;-85
2022/04/23 06:22:43;;;;;;;27.57;19.67;;;;;;;8.53;68.41;98162.08;2175637;82;21000;-84
2022/04/23 06:25:46;;;;;;;21.80;15.87;;;;;;;8.81;67.37;98170.59;2175357;82;21304;-83
2022/04/23 06:28:47;;;;;;;21.53;17.00;;;;;;;8.89;66.59;98168.92;2174750;82;20957;-83
2022/04/23 06:31:50;;;;;;;17.07;14.80;;;;;;;9.06;66.73;98169.48;2175196;82;20924;-84
2022/04/23 06:34:51;;;;;;;17.73;15.10;;;;;;;9.19;64.67;98170.00;2175475;82;20932;-83
2022/04/23 06:37:54;;;;;;;20.33;15.93;;;;;;;9.21;65.47;98168.28;2175308;82;20932;-84
2022/04/23 06:40:51;;;;;;;18.40;14.43;;;;;;;9.32;65.33;98163.13;2174665;82;20928;-85
2022/04/23 06:43:52;;;;;;;15.67;14.00;;;;;;;9.38;63.70;98160.13;2174724;82;20932;-86
2022/04/23 06:46:52;;;;;;;20.10;14.57;;;;;;;9.42;63.25;98161.02;2174926;82;21427;-85
2022/04/23 06:49:54;;;;;;;15.63;14.00;;;;;;;9.45;63.99;98151.92;2174601;82;20992;-85
2022/04/23 06:52:53;;;;;;;15.13;12.90;;;;;;;9.69;63.71;98145.98;2175274;82;20901;-85
2022/04/23 06:55:53;;;;;;;15.97;13.90;;;;;;;9.81;62.71;98144.73;2175148;82;21340;-85
2022/04/23 06:58:54;;;;;;;15.73;12.57;;;;;;;10.00;63.38;98141.32;2175344;82;21004;-85
2022/04/23 07:01:55;;;;;;;21.40;15.47;;;;;;;10.21;62.92;98138.80;2175543;82;20909;-85
2022/04/23 07:04:55;;;;;;;14.87;13.30;;;;;;;10.37;62.20;98138.82;2174966;82;21309;-85
2022/04/23 07:07:58;;;;;;;16.42;13.13;;;;;;;10.59;62.41;98136.70;2174953;82;20928;-85
2022/04/23 07:10:56;;;;;;;16.23;13.18;;;;;;;10.75;61.36;98131.05;2175117;82;21387;-85
2022/04/23 07:13:56;;;;;;;15.90;13.43;;;;;;;10.88;61.87;98128.86;2173692;82;20968;-85
2022/04/23 07:16:57;;;;;;;13.28;11.90;;;;;;;11.09;61.86;98128.83;2173432;82;21000;-86
2022/04/23 07:19:57;;;;;;;13.93;11.30;;;;;;;11.31;60.17;98125.77;2174417;82;20995;-85
2022/04/23 07:26:16;;;;;;;12.43;11.22;;;;;;;11.53;59.39;98128.32;2174063;82;20931;-87
2022/04/23 07:29:17;;;;;;;13.20;11.15;;;;;;;11.72;59.06;98128.24;2174527;82;20948;-86
2022/04/23 07:32:19;;;;;;;11.33;10.13;;;;;;;11.84;58.63;98118.20;2174191;82;21443;-85
2022/04/23 07:38:36;;;;;;;11.33;10.23;;;;;;;12.17;57.81;98115.88;2175106;82;20940;-85
2022/04/23 07:41:36;;;;;;;11.88;10.78;;;;;;;12.28;57.81;98110.58;2175211;82;20916;-85
2022/04/23 07:44:37;;;;;;;13.20;10.00;;;;;;;12.37;56.35;98109.20;2174974;82;20933;-87
2022/04/23 07:47:40;;;;;;;12.05;10.85;;;;;;;12.46;56.63;98103.90;2174537;82;21027;-85
2022/04/23 07:50:40;;;;;;;12.75;10.58;;;;;;;12.61;55.21;98100.30;2174678;82;20944;-84
2022/04/23 07:53:41;;;;;;;12.73;10.65;;;;;;;12.73;54.17;98096.27;2174263;82;20933;-85
2022/04/23 07:56:41;;;;;;;11.57;10.38;;;;;;;12.90;54.98;98100.91;2174771;82;20920;-83
2022/04/23 07:59:44;;;;;;;14.07;10.63;;;;;;;13.27;54.30;98097.55;2175261;82;20996;-84
2022/04/23 08:02:44;;;;;;;18.77;10.43;;;;;;;13.64;52.83;98094.05;2175170;82;20932;-84
2022/04/23 08:05:45;;;;;;;11.43;10.05;;;;;;;13.62;52.67;98101.52;2175142;82;20956;-86
2022/04/23 08:08:48;;;;;;;13.18;11.88;;;;;;;13.76;52.40;98085.16;2145640;82;20956;-83
2022/04/23 08:11:48;;;;;;;10.63;8.80;;;;;;;14.38;51.53;98078.63;2174858;82;20956;-85
2022/04/23 08:14:48;;;;;;;11.50;9.23;;;;;;;15.65;54.25;98079.96;2164495;82;21363;-85
2022/04/23 08:17:48;;;;;;;10.43;9.48;;;;;;;17.05;51.38;98068.81;2165425;82;21023;-85
2022/04/23 08:20:49;;;;;;;8.75;7.85;;;;;;;17.33;45.38;98072.89;2164382;82;20960;-84
2022/04/23 08:23:49;;;;;;;10.05;9.03;;;;;;;17.09;47.26;98079.24;2164249;82;20905;-85
2022/04/23 08:26:50;;;;;;;10.43;9.38;;;;;;;17.36;47.98;98076.80;2165020;82;21342;-85
2022/04/23 08:33:09;;;;;;;8.70;7.90;;;;;;;18.28;46.81;98060.05;2165427;82;20952;-86
2022/04/23 08:36:09;;;;;;;10.15;9.15;;;;;;;18.37;43.31;98066.81;2165022;82;20917;-84
2022/04/23 08:39:10;;;;;;;9.10;8.30;;;;;;;18.20;46.50;98063.81;2164772;82;20998;-84
2022/04/23 08:42:10;;;;;;;10.32;8.63;;;;;;;18.45;42.10;98063.47;2165491;82;20949;-84
2022/04/23 08:45:12;;;;;;;9.43;8.38;;;;;;;17.70;42.15;98058.27;2165147;82;20989;-84
2022/04/23 08:48:14;;;;;;;10.32;9.13;;;;;;;17.24;44.37;98065.23;2164549;82;20949;-82
2022/04/23 08:51:12;;;;;;;9.70;8.90;;;;;;;17.27;44.29;98062.52;2164704;82;20925;-86
2022/04/23 08:54:12;;;;;;;9.95;9.05;;;;;;;16.76;42.44;98070.89;2164469;82;20929;-84
2022/04/23 08:57:12;;;;;;;10.43;9.43;;;;;;;15.60;44.34;98070.81;2164777;82;20981;-83
2022/04/23 09:00:14;;;;;;;10.95;9.83;;;;;;;14.86;46.30;98065.20;2165143;82;21345;-86
2022/04/23 09:03:13;;;;;;;11.33;10.23;;;;;;;14.49;47.78;98067.55;2165487;82;21320;-84
2022/04/23 09:06:14;;;;;;;10.45;9.45;;;;;;;14.22;48.45;98067.05;2164970;82;20922;-85
2022/04/23 09:09:14;;;;;;;9.63;8.43;;;;;;;14.02;48.84;98069.97;2165253;82;20961;-85
2022/04/23 09:12:14;;;;;;;11.25;10.03;;;;;;;13.83;49.05;98065.83;2164961;81;20912;-84
2022/04/23 09:24:58;;;;;;;10.25;9.18;;;;;;;15.70;46.94;98057.92;2164800;82;20980;-84
2022/04/23 09:27:59;;;;;;;12.35;8.25;;;;;;;15.91;46.94;98055.28;2164447;82;21220;-79
2022/04/23 09:31:02;;;;;;;8.15;7.45;;;;;;;16.68;46.98;98055.72;2164189;82;20972;-79
2022/04/23 09:34:02;;;;;;;9.08;7.85;;;;;;;17.16;45.08;98056.21;2164419;82;20961;-84
2022/04/23 09:37:03;;;;;;;9.18;8.25;;;;;;;17.56;43.70;98048.08;2164375;82;20961;-84
2022/04/23 09:40:03;;;;;;;8.78;7.97;;;;;;;17.35;42.57;98044.73;2165291;82;20944;-85
2022/04/23 09:43:05;;;;;;;10.10;9.10;;;;;;;17.05;44.19;98047.27;2144464;82;20960;-84
2022/04/23 09:46:08;;;;;;;10.78;8.60;;;;;;;16.99;44.66;98050.07;2164382;82;21645;-85
2022/04/23 09:49:09;;;;;;;10.82;9.65;;;;;;;17.59;44.42;98046.67;2142035;82;20957;-84
2022/04/23 09:52:08;;;;;;;9.78;8.73;;;;;;;17.19;42.91;98051.72;2164042;82;20933;-85
2022/04/23 09:55:09;;;;;;;9.53;8.60;;;;;;;17.04;42.57;98053.91;2163816;82;20924;-83
2022/04/23 09:58:09;;;;;;;11.08;10.10;;;;;;;17.52;42.13;98046.44;2163470;82;20989;-83
2022/04/23 10:01:10;;;;;;;10.30;9.20;;;;;;;17.56;41.87;98047.22;2163646;82;20948;-83
2022/04/23 10:04:12;;;;;;;10.00;9.15;;;;;;;16.88;42.09;98045.53;2163868;82;20925;-84
2022/04/23 10:07:11;;;;;;;9.73;8.93;;;;;;;15.89;43.22;98051.36;2163287;82;21010;-84
2022/04/23 10:10:12;;;;;;;9.15;8.33;;;;;;;15.66;44.82;98047.50;2163204;82;20897;-84
2022/04/23 10:13:12;;;;;;;11.05;9.98;;;;;;;15.50;44.87;98043.80;2163399;82;21349;-83
2022/04/23 10:16:12;;;;;;;11.12;10.13;;;;;;;15.27;45.28;98055.23;2163886;82;20917;-85
2022/04/23 10:19:12;;;;;;;10.68;9.63;;;;;;;15.41;46.38;98054.51;2163948;82;20936;-86
2022/04/23 10:22:14;;;;;;;9.33;8.55;;;;;;;15.43;45.50;98062.37;2163674;82;20898;-86
2022/04/23 10:25:17;;;;;;;9.13;8.33;;;;;;;14.87;46.79;98062.54;2163550;82;20969;-83
2022/04/23 10:28:16;;;;;;;6.87;6.25;;;;;;;14.49;47.19;98079.36;2163569;82;21007;-86
2022/04/23 10:31:16;;;;;;;8.55;7.75;;;;;;;14.68;46.64;98054.97;2163700;82;20964;-84
2022/04/23 10:34:17;;;;;;;8.10;7.40;;;;;;;14.88;46.52;98059.47;2163817;82;20984;-84
2022/04/23 10:37:17;;;;;;;7.25;6.58;;;;;;;14.81;46.09;98055.22;2164443;82;20917;-85
2022/04/23 10:40:19;;;;;;;9.00;8.20;;;;;;;14.74;47.63;98058.81;2142665;82;20996;-85
2022/04/23 10:43:20;;;;;;;7.28;6.58;;;;;;;14.73;47.24;98060.57;2164593;82;20969;-85
2022/04/23 10:46:20;;;;;;;7.70;7.00;;;;;;;14.65;46.76;98074.28;2164535;82;21534;-86
2022/04/23 10:49:20;;;;;;;6.95;6.35;;;;;;;14.56;47.36;98067.42;2165311;82;20928;-85
2022/04/23 10:52:21;;;;;;;6.87;6.30;;;;;;;14.99;46.79;98058.83;2164792;82;21292;-83
2022/04/23 10:55:21;;;;;;;31.02;13.80;;;;;;;15.27;45.70;98057.86;2165323;82;20894;-85
2022/04/23 10:58:22;;;;;;;11.78;6.87;;;;;;;15.84;46.92;98061.12;2165183;82;20988;-83
2022/04/23 11:01:22;;;;;;;9.60;6.85;;;;;;;16.04;45.91;98067.27;2165033;82;20987;-84
2022/04/23 11:04:24;;;;;;;12.33;9.93;;;;;;;16.39;44.75;98068.22;2165302;82;20976;-85
2022/04/23 11:13:44;;;;;;;6.80;6.20;;;;;;;17.29;41.86;98059.38;2164475;82;21059;-85
2022/04/23 11:16:45;;;;;;;6.20;5.70;;;;;;;17.07;42.00;98072.28;2164686;82;20897;-85
2022/04/23 11:19:45;;;;;;;5.95;5.45;;;;;;;16.52;42.51;98063.97;2164285;82;20955;-85
2022/04/23 11:22:45;;;;;;;7.45;5.30;;;;;;;16.54;42.73;98067.43;2164090;82;20925;-84
2022/04/23 11:25:46;;;;;;;5.78;5.28;;;;;;;16.74;43.46;98068.74;2163721;82;21182;-85
2022/04/23 11:28:46;;;;;;;10.13;5.47;;;;;;;16.98;42.62;98066.80;2163802;82;21029;-82
2022/04/23 11:31:47;;;;;;;5.03;4.65;;;;;;;16.83;43.52;98066.73;2163021;82;20988;-84
2022/04/23 11:34:47;;;;;;;5.50;5.00;;;;;;;17.77;41.05;98062.47;2163090;82;20926;-82
2022/04/23 11:37:47;;;;;;;5.30;4.80;;;;;;;18.03;40.70;98057.27;2162698;82;21796;-85
2022/04/23 11:40:48;;;;;;;5.12;4.72;;;;;;;17.75;40.05;98062.97;2163410;82;20924;-83
2022/04/23 11:43:48;;;;;;;5.58;4.10;;;;;;;17.12;40.72;98067.30;2163686;82;20973;-84
2022/04/23 11:46:49;;;;;;;4.35;4.05;;;;;;;16.97;42.36;98066.38;2163812;82;20905;-82
2022/04/23 11:49:49;;;;;;;4.40;4.00;;;;;;;17.82;40.94;98058.78;2164423;82;21009;-82
2022/04/23 11:52:49;;;;;;;5.00;4.60;;;;;;;18.40;38.28;98043.80;2164145;82;20937;-84
2022/04/23 11:55:50;;;;;;;4.00;3.70;;;;;;;17.71;37.63;98053.41;2164407;82;20971;-83
2022/04/23 11:58:50;;;;;;;6.10;5.37;;;;;;;16.80;39.18;98068.59;2164811;82;21048;-82
2022/04/23 12:01:50;;;;;;;5.40;3.42;;;;;;;15.97;40.87;98065.67;2165010;82;20973;-84
2022/04/23 12:04:51;;;;;;;6.72;6.12;;;;;;;15.51;41.98;98064.39;2165170;82;20901;-84
2022/04/23 12:07:53;;;;;;;4.08;3.60;;;;;;;15.41;42.94;98076.86;2164526;82;20905;-83
2022/04/23 12:10:54;;;;;;;3.95;3.60;;;;;;;15.58;42.35;98081.81;2142160;82;20921;-84
2022/04/23 12:13:56;;;;;;;3.75;3.40;;;;;;;15.59;42.90;98079.16;2132007;83;20986;-84
2022/04/23 12:16:56;;;;;;;3.72;3.52;;;;;;;15.90;42.80;98071.52;2167387;82;20924;-85
2022/04/23 12:19:57;;;;;;;4.00;3.60;;;;;;;16.09;41.81;98079.87;2175430;82;21023;-85
2022/04/23 12:23:00;;;;;;;4.05;3.75;;;;;;;15.92;41.93;98075.43;2175395;82;21352;-84
2022/04/23 12:25:58;;;;;;;3.70;3.40;;;;;;;15.83;44.18;98088.34;2175386;82;20996;-83
2022/04/23 12:42:00;;;;;;;4.08;3.77;;;;;;;16.20;44.72;98087.53;2175154;82;21016;-83
2022/04/23 12:45:00;;;;;;;4.60;4.20;;;;;;;16.71;39.62;98096.03;2174819;82;20939;-82
2022/04/23 12:48:01;;;;;;;5.80;3.98;;;;;;;16.72;40.11;98101.72;2174336;82;21301;-83
2022/04/23 12:51:01;;;;;;;4.83;4.53;;;;;;;16.45;38.99;98086.52;2175135;82;20925;-84
2022/04/23 12:54:02;;;;;;;5.30;4.90;;;;;;;15.92;40.21;98109.20;2175483;82;20967;-85
2022/04/23 12:57:02;;;;;;;4.67;4.17;;;;;;;15.83;40.43;98097.55;2175439;82;20976;-84
2022/04/23 13:00:06;;;;;;;4.10;3.80;;;;;;;15.99;39.34;98102.03;2146436;82;21142;-85
2022/04/23 13:03:15;;;;;;;5.70;5.20;;;;;;;15.80;39.83;98092.34;2147024;82;20935;-85
2022/04/23 13:09:29;;;;;;;3.90;3.58;;;;;;;15.46;40.99;98093.86;2176097;82;20949;-84
2022/04/23 13:12:34;;;;;;;5.83;5.33;;;;;;;15.52;41.15;98089.80;2176373;82;20944;-84
2022/04/23 13:15:34;;;;;;;4.62;3.92;;;;;;;15.67;40.82;98092.19;2145080;82;20933;-83
2022/04/23 13:18:32;;;;;;;4.53;4.12;;;;;;;16.01;40.18;98090.16;2176086;82;20944;-84
2022/04/23 13:21:33;;;;;;;4.30;4.00;;;;;;;15.89;40.70;98081.63;2175821;82;20984;-84
2022/04/23 13:24:33;;;;;;;4.78;4.45;;;;;;;15.83;40.15;98083.08;2175602;82;20909;-84
2022/04/23 13:27:33;;;;;;;10.80;4.35;;;;;;;15.60;39.89;98085.28;2175315;82;20961;-83
2022/04/23 13:30:34;;;;;;;4.30;4.00;;;;;;;15.59;41.14;98066.45;2175877;82;20944;-84
2022/04/23 13:33:34;;;;;;;11.15;4.75;;;;;;;15.69;40.81;98073.73;2175279;82;20965;-82
2022/04/23 13:36:35;;;;;;;4.50;4.10;;;;;;;15.98;42.60;98062.59;2175027;82;20957;-85
2022/04/23 13:39:35;;;;;;;4.60;4.20;;;;;;;17.27;38.89;98062.52;2174985;82;21419;-85
2022/04/23 13:42:36;;;;;;;6.75;5.85;;;;;;;17.36;38.37;98060.52;2175143;82;20936;-85
2022/04/23 13:45:36;;;;;;;4.78;4.37;;;;;;;17.40;38.21;98057.34;2175070;82;20940;-85
2022/04/23 13:48:38;;;;;;;5.08;4.53;;;;;;;17.26;38.30;98060.78;2174570;82;21020;-82
2022/04/23 13:51:37;;;;;;;5.20;4.70;;;;;;;17.16;38.67;98055.76;2173509;82;21032;-83
2022/04/23 13:54:38;;;;;;;3.80;3.50;;;;;;;17.14;38.40;98043.52;2174553;82;20929;-84
2022/04/23 13:57:38;;;;;;;4.45;3.98;;;;;;;17.16;38.51;98039.08;2175053;82;20925;-85
2022/04/23 14:00:39;;;;;;;4.45;4.05;;;;;;;17.04;38.56;98040.72;2175701;82;21031;-82
2022/04/23 14:10:17;;;;;;;5.97;4.22;;;;;;;17.29;38.43;98027.28;2176145;82;20905;-84
2022/04/23 14:13:18;;;;;;;4.53;4.22;;;;;;;17.45;37.96;98027.28;2175403;82;20928;-84
2022/04/23 14:16:18;;;;;;;4.90;4.50;;;;;;;17.14;37.64;98032.97;2176503;82;20924;-85
2022/04/23 14:19:18;;;;;;;12.35;4.83;;;;;;;16.61;39.16;98034.34;2176144;82;20976;-85
2022/04/23 14:22:19;;;;;;;9.85;5.42;;;;;;;16.82;39.66;98039.11;2175750;82;21241;-85
2022/04/23 14:25:19;;;;;;;7.08;4.97;;;;;;;17.10;39.11;98036.60;2176482;82;20906;-86
2022/04/23 14:28:20;;;;;;;4.87;4.33;;;;;;;17.26;38.89;98026.05;2175803;82;21000;-84
2022/04/23 14:31:20;;;;;;;5.40;5.00;;;;;;;17.47;38.47;98016.69;2176297;82;20975;-84
2022/04/23 14:34:24;;;;;;;5.87;5.28;;;;;;;17.51;37.75;98023.61;2176030;82;20936;-84
2022/04/23 14:37:24;;;;;;;5.12;4.72;;;;;;;17.46;37.71;98021.55;2175971;82;21346;-84
2022/04/23 14:40:25;;;;;;;5.58;5.08;;;;;;;17.40;37.59;98021.28;2176535;82;20955;-85
2022/04/23 14:43:29;;;;;;;5.12;4.62;;;;;;;17.46;37.91;98012.32;2176156;82;20897;-85
2022/04/23 14:46:29;;;;;;;7.40;6.37;;;;;;;17.66;38.26;98012.63;2176065;82;20977;-84
2022/04/23 14:49:29;;;;;;;5.90;5.40;;;;;;;17.60;38.09;98016.74;2175709;82;20933;-84
2022/04/23 14:55:48;;;;;;;6.12;5.35;;;;;;;17.10;37.87;98012.41;2176063;82;20972;-83